sensor_id;sensor_type;location;lat;lon;timestamp;temperature;humidity
21590;DHT22;10957;50.968;6.828;2023-09-19T00:03:31;15.40;1.00
21590;DHT22;10957;50.968;6.828;2023-09-19T00:08:33;15.30;1.00
21590;DHT22;10957;50.968;6.828;2023-09-19T00:13:35;15.30;1.00
21590;DHT22;10957;50.968;6.828;2023-09-19T00:18:38;15.30;1.00
21590;DHT22;10957;50.968;6.828;2023-09-19T00:23:39;15.30;1.00
21590;DHT22;10957;50.968;6.828;2023-09-19T00:28:42;15.30;1.00
21590;DHT22;10957;50.968;6.828;2023-09-19T00:33:44;15.20;1.00
21590;DHT22;10957;50.968;6.828;2023-09-19T00:38:46;15.10;1.00
21590;DHT22;10957;50.968;6.828;2023-09-19T00:43:47;15.10;1.00
21590;DHT22;10957;50.968;6.828;2023-09-19T00:48:49;15.00;1.00
21590;DHT22;10957;50.968;6.828;2023-09-19T00:53:51;15.10;1.00
21590;DHT22;10957;50.968;6.828;2023-09-19T00:58:53;15.10;1.00
21590;DHT22;10957;50.968;6.828;2023-09-19T01:03:55;15.20;1.00
21590;DHT22;10957;50.968;6.828;2023-09-19T01:08:56;15.20;1.00
21590;DHT22;10957;50.968;6.828;2023-09-19T01:14:22;15.20;1.00
21590;DHT22;10957;50.968;6.828;2023-09-19T01:30:22;15.30;1.00
21590;DHT22;10957;50.968;6.828;2023-09-19T01:35:25;15.30;1.00
21590;DHT22;10957;50.968;6.828;2023-09-19T01:40:27;15.30;1.00
21590;DHT22;10957;50.968;6.828;2023-09-19T01:51:20;15.30;1.00
21590;DHT22;10957;50.968;6.828;2023-09-19T01:56:31;15.30;1.00
21590;DHT22;10957;50.968;6.828;2023-09-19T02:01:34;15.30;1.00
21590;DHT22;10957;50.968;6.828;2023-09-19T02:06:42;15.20;99.90
21590;DHT22;10957;50.968;6.828;2023-09-19T02:11:43;15.20;99.90
21590;DHT22;10957;50.968;6.828;2023-09-19T02:16:45;15.20;99.90
21590;DHT22;10957;50.968;6.828;2023-09-19T02:21:47;15.20;99.90
21590;DHT22;10957;50.968;6.828;2023-09-19T02:26:49;15.20;99.90
21590;DHT22;10957;50.968;6.828;2023-09-19T02:31:51;15.10;99.90
21590;DHT22;10957;50.968;6.828;2023-09-19T02:36:52;15.10;99.90
21590;DHT22;10957;50.968;6.828;2023-09-19T02:41:56;14.90;99.90
21590;DHT22;10957;50.968;6.828;2023-09-19T02:46:57;14.80;99.90
21590;DHT22;10957;50.968;6.828;2023-09-19T02:51:59;14.80;99.90
21590;DHT22;10957;50.968;6.828;2023-09-19T02:57:00;14.80;99.90
21590;DHT22;10957;50.968;6.828;2023-09-19T03:02:02;14.70;99.90
21590;DHT22;10957;50.968;6.828;2023-09-19T03:07:04;14.70;99.90
21590;DHT22;10957;50.968;6.828;2023-09-19T03:12:07;14.70;99.90
21590;DHT22;10957;50.968;6.828;2023-09-19T03:17:10;14.60;99.90
21590;DHT22;10957;50.968;6.828;2023-09-19T03:22:12;14.50;99.90
21590;DHT22;10957;50.968;6.828;2023-09-19T03:27:13;14.40;99.90
21590;DHT22;10957;50.968;6.828;2023-09-19T03:32:17;14.50;99.90
21590;DHT22;10957;50.968;6.828;2023-09-19T03:37:19;14.50;99.90
21590;DHT22;10957;50.968;6.828;2023-09-19T03:42:21;14.40;99.90
21590;DHT22;10957;50.968;6.828;2023-09-19T03:47:27;14.50;99.90
21590;DHT22;10957;50.968;6.828;2023-09-19T03:52:30;14.30;1.00
21590;DHT22;10957;50.968;6.828;2023-09-19T03:57:32;14.30;1.00
21590;DHT22;10957;50.968;6.828;2023-09-19T04:02:33;14.30;1.00
21590;DHT22;10957;50.968;6.828;2023-09-19T04:07:35;14.30;1.00
21590;DHT22;10957;50.968;6.828;2023-09-19T04:12:37;14.30;1.00
21590;DHT22;10957;50.968;6.828;2023-09-19T04:17:39;14.20;1.00
21590;DHT22;10957;50.968;6.828;2023-09-19T04:22:40;14.20;1.00
21590;DHT22;10957;50.968;6.828;2023-09-19T04:27:41;14.40;99.90
21590;DHT22;10957;50.968;6.828;2023-09-19T04:32:43;14.10;99.90
21590;DHT22;10957;50.968;6.828;2023-09-19T04:37:44;14.10;99.90
21590;DHT22;10957;50.968;6.828;2023-09-19T04:42:52;14.20;99.90
21590;DHT22;10957;50.968;6.828;2023-09-19T04:47:55;14.10;99.90
21590;DHT22;10957;50.968;6.828;2023-09-19T04:52:57;14.00;99.90
21590;DHT22;10957;50.968;6.828;2023-09-19T04:57:58;14.00;99.90
21590;DHT22;10957;50.968;6.828;2023-09-19T05:03:00;13.80;99.90
21590;DHT22;10957;50.968;6.828;2023-09-19T05:08:01;14.00;99.90
21590;DHT22;10957;50.968;6.828;2023-09-19T05:13:06;13.70;99.90
21590;DHT22;10957;50.968;6.828;2023-09-19T05:18:08;13.90;99.90
21590;DHT22;10957;50.968;6.828;2023-09-19T05:23:10;13.90;99.90
21590;DHT22;10957;50.968;6.828;2023-09-19T05:28:14;13.50;99.90
21590;DHT22;10957;50.968;6.828;2023-09-19T05:33:16;14.00;99.90
21590;DHT22;10957;50.968;6.828;2023-09-19T05:38:19;13.80;99.90
21590;DHT22;10957;50.968;6.828;2023-09-19T05:43:21;13.90;99.90
21590;DHT22;10957;50.968;6.828;2023-09-19T05:48:22;14.20;99.90
21590;DHT22;10957;50.968;6.828;2023-09-19T05:53:24;14.10;99.90
21590;DHT22;10957;50.968;6.828;2023-09-19T05:58:25;14.10;99.90
21590;DHT22;10957;50.968;6.828;2023-09-19T06:03:26;14.30;99.90
21590;DHT22;10957;50.968;6.828;2023-09-19T06:08:28;14.20;99.90
21590;DHT22;10957;50.968;6.828;2023-09-19T06:13:29;14.20;99.90
21590;DHT22;10957;50.968;6.828;2023-09-19T06:18:32;14.20;99.90
21590;DHT22;10957;50.968;6.828;2023-09-19T06:23:35;14.00;99.90
21590;DHT22;10957;50.968;6.828;2023-09-19T06:28:36;14.50;99.90
21590;DHT22;10957;50.968;6.828;2023-09-19T06:33:38;14.40;99.90
21590;DHT22;10957;50.968;6.828;2023-09-19T06:38:40;14.50;99.90
21590;DHT22;10957;50.968;6.828;2023-09-19T06:43:42;14.60;99.90
21590;DHT22;10957;50.968;6.828;2023-09-19T06:48:43;14.60;99.90
21590;DHT22;10957;50.968;6.828;2023-09-19T06:53:45;14.70;99.90
21590;DHT22;10957;50.968;6.828;2023-09-19T06:58:46;14.90;99.90
21590;DHT22;10957;50.968;6.828;2023-09-19T07:03:47;14.90;99.90
21590;DHT22;10957;50.968;6.828;2023-09-19T07:08:49;15.10;99.90
21590;DHT22;10957;50.968;6.828;2023-09-19T07:13:51;15.20;99.90
21590;DHT22;10957;50.968;6.828;2023-09-19T07:18:53;15.30;99.90
21590;DHT22;10957;50.968;6.828;2023-09-19T07:24:00;15.40;99.90
21590;DHT22;10957;50.968;6.828;2023-09-19T07:29:05;15.50;99.90
21590;DHT22;10957;50.968;6.828;2023-09-19T07:34:08;15.60;99.90
21590;DHT22;10957;50.968;6.828;2023-09-19T07:39:11;15.70;99.90
21590;DHT22;10957;50.968;6.828;2023-09-19T07:44:14;15.80;99.90
21590;DHT22;10957;50.968;6.828;2023-09-19T07:49:15;16.10;82.00
21590;DHT22;10957;50.968;6.828;2023-09-19T07:54:17;16.30;41.30
21590;DHT22;10957;50.968;6.828;2023-09-19T07:59:18;16.50;1.60
21590;DHT22;10957;50.968;6.828;2023-09-19T08:04:20;16.70;1.00
21590;DHT22;10957;50.968;6.828;2023-09-19T08:09:24;16.90;1.00
21590;DHT22;10957;50.968;6.828;2023-09-19T08:14:28;16.90;1.00
21590;DHT22;10957;50.968;6.828;2023-09-19T08:19:30;16.90;1.00
21590;DHT22;10957;50.968;6.828;2023-09-19T08:24:33;17.10;1.00
21590;DHT22;10957;50.968;6.828;2023-09-19T08:29:35;17.40;1.00
21590;DHT22;10957;50.968;6.828;2023-09-19T08:34:37;17.60;1.00
21590;DHT22;10957;50.968;6.828;2023-09-19T08:39:45;17.50;1.00
21590;DHT22;10957;50.968;6.828;2023-09-19T08:44:47;17.50;1.00
21590;DHT22;10957;50.968;6.828;2023-09-19T08:50:05;17.60;1.00
21590;DHT22;10957;50.968;6.828;2023-09-19T08:55:15;17.90;1.00
21590;DHT22;10957;50.968;6.828;2023-09-19T09:00:22;18.00;1.00
21590;DHT22;10957;50.968;6.828;2023-09-19T09:05:26;18.40;1.00
21590;DHT22;10957;50.968;6.828;2023-09-19T09:10:37;18.40;1.00
21590;DHT22;10957;50.968;6.828;2023-09-19T09:15:42;18.30;99.90
21590;DHT22;10957;50.968;6.828;2023-09-19T09:20:45;18.30;99.90
21590;DHT22;10957;50.968;6.828;2023-09-19T09:25:54;18.30;99.90
21590;DHT22;10957;50.968;6.828;2023-09-19T09:30:58;18.50;99.90
21590;DHT22;10957;50.968;6.828;2023-09-19T09:36:03;18.70;99.90
21590;DHT22;10957;50.968;6.828;2023-09-19T09:41:06;18.60;99.90
21590;DHT22;10957;50.968;6.828;2023-09-19T09:51:32;18.80;99.90
21590;DHT22;10957;50.968;6.828;2023-09-19T09:56:34;18.80;99.90
21590;DHT22;10957;50.968;6.828;2023-09-19T10:01:48;18.80;99.90
21590;DHT22;10957;50.968;6.828;2023-09-19T10:06:54;18.70;99.90
21590;DHT22;10957;50.968;6.828;2023-09-19T10:12:10;18.90;99.90
21590;DHT22;10957;50.968;6.828;2023-09-19T10:17:15;19.10;99.90
21590;DHT22;10957;50.968;6.828;2023-09-19T10:22:21;19.30;99.90
21590;DHT22;10957;50.968;6.828;2023-09-19T10:27:26;19.30;99.90
21590;DHT22;10957;50.968;6.828;2023-09-19T10:32:28;19.50;99.90
21590;DHT22;10957;50.968;6.828;2023-09-19T10:37:35;19.60;99.90
21590;DHT22;10957;50.968;6.828;2023-09-19T10:42:42;19.40;99.90
21590;DHT22;10957;50.968;6.828;2023-09-19T10:47:44;19.30;99.90
21590;DHT22;10957;50.968;6.828;2023-09-19T10:52:46;19.40;99.90
21590;DHT22;10957;50.968;6.828;2023-09-19T10:57:47;19.30;99.90
21590;DHT22;10957;50.968;6.828;2023-09-19T11:08:12;19.50;99.90
21590;DHT22;10957;50.968;6.828;2023-09-19T11:13:29;19.50;99.90
21590;DHT22;10957;50.968;6.828;2023-09-19T11:23:43;19.60;99.90
21590;DHT22;10957;50.968;6.828;2023-09-19T11:39:42;19.40;99.90
21590;DHT22;10957;50.968;6.828;2023-09-19T11:45:01;19.60;99.90
21590;DHT22;10957;50.968;6.828;2023-09-19T11:50:06;20.00;99.90
21590;DHT22;10957;50.968;6.828;2023-09-19T11:55:12;20.10;99.90
21590;DHT22;10957;50.968;6.828;2023-09-19T12:00:17;20.10;99.90
21590;DHT22;10957;50.968;6.828;2023-09-19T12:05:31;20.20;99.90
21590;DHT22;10957;50.968;6.828;2023-09-19T12:10:50;20.30;99.90
21590;DHT22;10957;50.968;6.828;2023-09-19T12:15:59;20.20;99.90
21590;DHT22;10957;50.968;6.828;2023-09-19T12:21:01;20.20;99.90
21590;DHT22;10957;50.968;6.828;2023-09-19T12:26:08;20.30;99.90
21590;DHT22;10957;50.968;6.828;2023-09-19T12:31:13;20.40;99.90
21590;DHT22;10957;50.968;6.828;2023-09-19T12:36:23;20.20;99.90
21590;DHT22;10957;50.968;6.828;2023-09-19T12:41:31;20.30;99.90
21590;DHT22;10957;50.968;6.828;2023-09-19T12:46:32;20.40;99.90
21590;DHT22;10957;50.968;6.828;2023-09-19T12:51:36;20.50;99.90
21590;DHT22;10957;50.968;6.828;2023-09-19T12:56:42;20.60;99.90
21590;DHT22;10957;50.968;6.828;2023-09-19T13:02:03;20.50;99.90
21590;DHT22;10957;50.968;6.828;2023-09-19T13:07:05;20.10;99.90
21590;DHT22;10957;50.968;6.828;2023-09-19T13:12:36;20.40;99.90
21590;DHT22;10957;50.968;6.828;2023-09-19T13:17:43;20.80;99.90
21590;DHT22;10957;50.968;6.828;2023-09-19T13:22:45;20.70;99.90
21590;DHT22;10957;50.968;6.828;2023-09-19T13:27:54;20.70;99.90
21590;DHT22;10957;50.968;6.828;2023-09-19T13:33:07;20.60;99.90
21590;DHT22;10957;50.968;6.828;2023-09-19T13:38:10;20.70;99.90
21590;DHT22;10957;50.968;6.828;2023-09-19T13:43:12;20.80;99.90
21590;DHT22;10957;50.968;6.828;2023-09-19T13:48:13;21.00;99.90
21590;DHT22;10957;50.968;6.828;2023-09-19T13:53:15;21.20;99.90
21590;DHT22;10957;50.968;6.828;2023-09-19T13:58:17;21.20;99.90
21590;DHT22;10957;50.968;6.828;2023-09-19T14:03:19;20.90;99.90
21590;DHT22;10957;50.968;6.828;2023-09-19T14:08:21;20.60;99.90
21590;DHT22;10957;50.968;6.828;2023-09-19T14:13:24;20.50;99.90
21590;DHT22;10957;50.968;6.828;2023-09-19T14:18:26;20.30;99.90
21590;DHT22;10957;50.968;6.828;2023-09-19T14:23:28;20.10;99.90
21590;DHT22;10957;50.968;6.828;2023-09-19T14:28:29;20.10;99.90
21590;DHT22;10957;50.968;6.828;2023-09-19T14:33:33;20.20;99.90
21590;DHT22;10957;50.968;6.828;2023-09-19T14:38:37;20.10;99.90
21590;DHT22;10957;50.968;6.828;2023-09-19T14:43:38;20.10;99.90
21590;DHT22;10957;50.968;6.828;2023-09-19T14:48:40;20.20;99.90
21590;DHT22;10957;50.968;6.828;2023-09-19T14:53:41;20.60;99.90
21590;DHT22;10957;50.968;6.828;2023-09-19T14:58:43;20.90;99.90
21590;DHT22;10957;50.968;6.828;2023-09-19T15:03:45;21.10;99.90
21590;DHT22;10957;50.968;6.828;2023-09-19T15:08:48;20.60;99.90
21590;DHT22;10957;50.968;6.828;2023-09-19T15:13:51;20.20;99.90
21590;DHT22;10957;50.968;6.828;2023-09-19T15:18:53;20.00;99.90
21590;DHT22;10957;50.968;6.828;2023-09-19T15:23:56;19.70;99.90
21590;DHT22;10957;50.968;6.828;2023-09-19T15:28:58;19.70;99.90
21590;DHT22;10957;50.968;6.828;2023-09-19T15:33:59;19.80;99.90
21590;DHT22;10957;50.968;6.828;2023-09-19T15:39:05;19.70;99.90
21590;DHT22;10957;50.968;6.828;2023-09-19T15:44:15;19.70;99.90
21590;DHT22;10957;50.968;6.828;2023-09-19T15:49:17;19.70;99.90
21590;DHT22;10957;50.968;6.828;2023-09-19T15:54:19;19.60;99.90
21590;DHT22;10957;50.968;6.828;2023-09-19T15:59:20;19.60;99.90
21590;DHT22;10957;50.968;6.828;2023-09-19T16:04:22;19.60;99.90
21590;DHT22;10957;50.968;6.828;2023-09-19T16:09:23;19.50;99.90
21590;DHT22;10957;50.968;6.828;2023-09-19T16:14:24;19.60;99.90
21590;DHT22;10957;50.968;6.828;2023-09-19T16:19:28;19.60;99.90
21590;DHT22;10957;50.968;6.828;2023-09-19T16:24:29;19.50;99.90
21590;DHT22;10957;50.968;6.828;2023-09-19T16:29:30;19.40;99.90
21590;DHT22;10957;50.968;6.828;2023-09-19T16:34:32;19.40;99.90
21590;DHT22;10957;50.968;6.828;2023-09-19T16:39:33;19.40;99.90
21590;DHT22;10957;50.968;6.828;2023-09-19T16:44:35;19.40;99.90
21590;DHT22;10957;50.968;6.828;2023-09-19T16:49:36;19.30;99.90
21590;DHT22;10957;50.968;6.828;2023-09-19T16:54:37;19.20;99.90
21590;DHT22;10957;50.968;6.828;2023-09-19T16:59:39;19.00;99.90
21590;DHT22;10957;50.968;6.828;2023-09-19T17:04:44;18.90;99.90
21590;DHT22;10957;50.968;6.828;2023-09-19T17:09:45;18.80;99.90
21590;DHT22;10957;50.968;6.828;2023-09-19T17:14:47;18.70;99.90
21590;DHT22;10957;50.968;6.828;2023-09-19T17:19:48;18.60;99.90
21590;DHT22;10957;50.968;6.828;2023-09-19T17:24:49;18.50;99.90
21590;DHT22;10957;50.968;6.828;2023-09-19T17:29:52;18.40;99.90
21590;DHT22;10957;50.968;6.828;2023-09-19T17:34:53;18.40;99.90
21590;DHT22;10957;50.968;6.828;2023-09-19T17:39:55;18.30;99.90
21590;DHT22;10957;50.968;6.828;2023-09-19T17:44:58;18.20;99.90
21590;DHT22;10957;50.968;6.828;2023-09-19T17:49:59;18.20;99.90
21590;DHT22;10957;50.968;6.828;2023-09-19T17:55:03;18.20;99.90
21590;DHT22;10957;50.968;6.828;2023-09-19T18:00:06;18.10;99.90
21590;DHT22;10957;50.968;6.828;2023-09-19T18:05:13;18.00;99.90
21590;DHT22;10957;50.968;6.828;2023-09-19T18:10:17;18.00;99.90
21590;DHT22;10957;50.968;6.828;2023-09-19T18:15:18;17.80;99.90
21590;DHT22;10957;50.968;6.828;2023-09-19T18:20:19;17.80;99.90
21590;DHT22;10957;50.968;6.828;2023-09-19T18:25:23;17.90;99.90
21590;DHT22;10957;50.968;6.828;2023-09-19T18:30:24;17.90;99.90
21590;DHT22;10957;50.968;6.828;2023-09-19T18:35:26;17.80;99.90
21590;DHT22;10957;50.968;6.828;2023-09-19T18:40:30;17.90;99.90
21590;DHT22;10957;50.968;6.828;2023-09-19T18:45:32;17.90;99.90
21590;DHT22;10957;50.968;6.828;2023-09-19T18:50:34;17.90;99.90
21590;DHT22;10957;50.968;6.828;2023-09-19T18:55:35;17.90;99.90
21590;DHT22;10957;50.968;6.828;2023-09-19T19:00:37;17.90;99.90
21590;DHT22;10957;50.968;6.828;2023-09-19T19:05:38;17.90;99.90
21590;DHT22;10957;50.968;6.828;2023-09-19T19:10:39;17.90;99.90
21590;DHT22;10957;50.968;6.828;2023-09-19T19:15:41;17.90;99.90
21590;DHT22;10957;50.968;6.828;2023-09-19T19:20:42;17.90;99.90
21590;DHT22;10957;50.968;6.828;2023-09-19T19:25:47;17.90;99.90
21590;DHT22;10957;50.968;6.828;2023-09-19T19:30:52;17.80;99.90
21590;DHT22;10957;50.968;6.828;2023-09-19T19:36:06;17.80;99.90
21590;DHT22;10957;50.968;6.828;2023-09-19T19:41:08;17.70;99.90
21590;DHT22;10957;50.968;6.828;2023-09-19T19:46:09;17.80;99.90
21590;DHT22;10957;50.968;6.828;2023-09-19T19:51:11;17.80;99.90
21590;DHT22;10957;50.968;6.828;2023-09-19T19:56:14;17.70;99.90
21590;DHT22;10957;50.968;6.828;2023-09-19T20:01:15;17.70;99.90
21590;DHT22;10957;50.968;6.828;2023-09-19T20:06:17;17.70;99.90
21590;DHT22;10957;50.968;6.828;2023-09-19T20:11:23;17.70;99.90
21590;DHT22;10957;50.968;6.828;2023-09-19T20:16:29;17.60;99.90
21590;DHT22;10957;50.968;6.828;2023-09-19T20:21:33;17.60;99.90
21590;DHT22;10957;50.968;6.828;2023-09-19T20:26:36;17.60;99.90
21590;DHT22;10957;50.968;6.828;2023-09-19T20:31:40;17.50;99.90
21590;DHT22;10957;50.968;6.828;2023-09-19T20:36:41;17.50;99.90
21590;DHT22;10957;50.968;6.828;2023-09-19T20:41:43;17.40;99.90
21590;DHT22;10957;50.968;6.828;2023-09-19T20:46:47;17.30;99.90
21590;DHT22;10957;50.968;6.828;2023-09-19T20:51:54;17.30;99.90
21590;DHT22;10957;50.968;6.828;2023-09-19T20:56:56;17.40;99.90
21590;DHT22;10957;50.968;6.828;2023-09-19T21:01:58;17.40;99.90
21590;DHT22;10957;50.968;6.828;2023-09-19T21:07:00;17.40;99.90
21590;DHT22;10957;50.968;6.828;2023-09-19T21:12:01;17.40;99.90
21590;DHT22;10957;50.968;6.828;2023-09-19T21:17:03;17.40;99.90
21590;DHT22;10957;50.968;6.828;2023-09-19T21:22:04;17.40;99.90
21590;DHT22;10957;50.968;6.828;2023-09-19T21:27:05;17.50;99.90
21590;DHT22;10957;50.968;6.828;2023-09-19T21:32:08;17.40;99.90
21590;DHT22;10957;50.968;6.828;2023-09-19T21:37:10;17.50;99.90
21590;DHT22;10957;50.968;6.828;2023-09-19T21:42:15;17.50;99.90
21590;DHT22;10957;50.968;6.828;2023-09-19T21:47:17;17.50;99.90
21590;DHT22;10957;50.968;6.828;2023-09-19T21:52:18;17.40;99.90
21590;DHT22;10957;50.968;6.828;2023-09-19T21:57:20;17.40;99.90
21590;DHT22;10957;50.968;6.828;2023-09-19T22:02:21;17.40;99.90
21590;DHT22;10957;50.968;6.828;2023-09-19T22:07:22;17.40;99.90
21590;DHT22;10957;50.968;6.828;2023-09-19T22:12:26;17.30;99.90
21590;DHT22;10957;50.968;6.828;2023-09-19T22:17:27;17.30;99.90
21590;DHT22;10957;50.968;6.828;2023-09-19T22:22:29;17.20;99.90
21590;DHT22;10957;50.968;6.828;2023-09-19T22:27:30;17.20;99.90
21590;DHT22;10957;50.968;6.828;2023-09-19T22:32:32;17.10;99.90
21590;DHT22;10957;50.968;6.828;2023-09-19T22:37:35;17.00;99.90
21590;DHT22;10957;50.968;6.828;2023-09-19T22:42:38;16.90;99.90
21590;DHT22;10957;50.968;6.828;2023-09-19T22:47:42;16.80;99.90
21590;DHT22;10957;50.968;6.828;2023-09-19T22:52:45;16.70;99.90
21590;DHT22;10957;50.968;6.828;2023-09-19T22:57:55;16.70;99.90
21590;DHT22;10957;50.968;6.828;2023-09-19T23:02:56;16.60;99.90
21590;DHT22;10957;50.968;6.828;2023-09-19T23:07:59;16.70;99.90
21590;DHT22;10957;50.968;6.828;2023-09-19T23:13:00;16.60;99.90
21590;DHT22;10957;50.968;6.828;2023-09-19T23:18:02;16.60;99.90
21590;DHT22;10957;50.968;6.828;2023-09-19T23:23:03;16.50;99.90
21590;DHT22;10957;50.968;6.828;2023-09-19T23:28:05;16.50;99.90
21590;DHT22;10957;50.968;6.828;2023-09-19T23:33:07;16.40;99.90
21590;DHT22;10957;50.968;6.828;2023-09-19T23:38:08;16.40;99.90
21590;DHT22;10957;50.968;6.828;2023-09-19T23:43:10;16.40;1.00
21590;DHT22;10957;50.968;6.828;2023-09-19T23:48:15;16.40;1.00
21590;DHT22;10957;50.968;6.828;2023-09-19T23:53:18;16.40;1.00
21590;DHT22;10957;50.968;6.828;2023-09-19T23:58:20;16.30;1.00
